Time;durP1;ratioP1;P1;durP2;ratioP2;P2;SDS_P1;SDS_P2;PMS_P1;PMS_P2;Temp;Humidity;BMP_temperature;BMP_pressure;BME280_temperature;BME280_humidity;BME280_pressure;Samples;Min_cycle;Max_cycle;Signal;HPM_P1;HPM_P2
2023/07/23 00:00:21;;;;;;;2.15;1.60;;;;;;;23.83;100.00;100071.09;4997550;28;20042;-79
2023/07/23 00:02:47;;;;;;;2.28;1.23;;;;;;;24.44;100.00;100213.03;5006732;28;20045;-79
2023/07/23 00:05:13;;;;;;;3.72;1.80;;;;;;;23.93;100.00;100131.25;5007949;28;20057;-81
2023/07/23 00:07:39;;;;;;;2.60;1.55;;;;;;;24.47;100.00;100203.94;5003967;28;20043;-79
2023/07/23 00:10:05;;;;;;;4.30;1.33;;;;;;;24.57;100.00;100202.41;5007248;28;20667;-79
2023/07/23 00:12:31;;;;;;;2.03;1.00;;;;;;;23.87;100.00;100127.09;5008210;28;20046;-77
2023/07/23 00:14:56;;;;;;;2.97;1.48;;;;;;;24.11;100.00;100205.16;5007963;28;20046;-78
2023/07/23 00:17:22;;;;;;;2.45;1.35;;;;;;;23.80;100.00;100171.28;5008203;28;20018;-78
2023/07/23 00:19:47;;;;;;;2.72;1.90;;;;;;;24.07;100.00;100221.53;5007817;28;20552;-79
2023/07/23 00:22:13;;;;;;;3.70;2.08;;;;;;;24.02;100.00;100211.06;5002090;28;20038;-79
2023/07/23 00:24:38;;;;;;;4.47;2.38;;;;;;;24.23;100.00;100252.72;5005562;28;20516;-80
2023/07/23 00:27:04;;;;;;;3.80;1.95;;;;;;;24.03;100.00;100228.91;5001251;28;20740;-79
2023/07/23 00:29:30;;;;;;;4.00;2.13;;;;;;;23.68;100.00;100163.94;5005101;28;20030;-79
2023/07/23 00:31:55;;;;;;;3.47;2.15;;;;;;;23.57;100.00;100152.03;5005558;28;20045;-78
2023/07/23 00:34:21;;;;;;;3.20;1.67;;;;;;;23.86;100.00;100212.94;5005029;28;20053;-78
2023/07/23 00:36:47;;;;;;;2.60;1.65;;;;;;;24.11;100.00;100271.34;5003569;28;20065;-77
2023/07/23 00:39:12;;;;;;;3.65;1.88;;;;;;;23.79;100.00;100205.28;5007617;28;20041;-83
2023/07/23 00:41:38;;;;;;;3.10;1.55;;;;;;;23.91;100.00;100243.88;5004617;28;20045;-79
2023/07/23 00:44:03;;;;;;;3.85;2.00;;;;;;;23.86;100.00;100221.84;4992441;28;20045;-79
2023/07/23 00:46:29;;;;;;;3.15;1.98;;;;;;;23.53;100.00;100152.28;5006472;28;20041;-78
2023/07/23 00:48:54;;;;;;;2.75;1.08;;;;;;;23.51;100.00;100172.97;5007269;28;20046;-81
2023/07/23 00:51:20;;;;;;;2.25;1.20;;;;;;;23.38;100.00;100160.25;5001054;28;20649;-79
2023/07/23 00:53:47;;;;;;;2.45;1.33;;;;;;;23.96;100.00;100257.03;5039211;28;20092;-80
2023/07/23 00:56:13;;;;;;;3.30;1.65;;;;;;;24.04;100.00;100261.94;5006564;28;20050;-77
2023/07/23 00:58:38;;;;;;;1.90;1.33;;;;;;;23.85;100.00;100217.44;5004262;28;20073;-78
2023/07/23 01:01:04;;;;;;;2.78;1.50;;;;;;;24.00;100.00;100270.16;5007101;28;20145;-78
2023/07/23 01:03:29;;;;;;;2.83;1.83;;;;;;;23.99;100.00;100248.78;5004275;28;20588;-78
2023/07/23 01:06:01;;;;;;;3.30;2.90;;;;;;;24.04;100.00;100254.75;5007030;28;20088;-79
2023/07/23 01:08:27;;;;;;;3.53;1.60;;;;;;;23.68;100.00;100199.63;5007834;28;20040;-79
2023/07/23 01:10:53;;;;;;;2.65;1.25;;;;;;;23.99;100.00;100249.66;5006586;28;20133;-78
2023/07/23 01:13:19;;;;;;;3.28;1.95;;;;;;;24.22;100.00;100276.94;5006830;28;20081;-78
2023/07/23 01:15:44;;;;;;;3.83;1.83;;;;;;;24.33;100.00;100305.81;5006928;28;20070;-79
2023/07/23 01:18:12;;;;;;;1.77;1.27;;;;;;;24.17;100.00;100285.25;5006796;28;21575;-78
2023/07/23 01:20:38;;;;;;;2.55;1.20;;;;;;;23.59;100.00;100195.66;4994523;28;20038;-79
2023/07/23 01:23:03;;;;;;;3.17;1.20;;;;;;;24.34;100.00;100328.97;5004889;28;20100;-79
2023/07/23 01:25:29;;;;;;;5.28;1.40;;;;;;;24.25;100.00;100327.69;5001683;28;20046;-78
2023/07/23 01:27:54;;;;;;;3.38;2.03;;;;;;;23.69;100.00;100257.59;5006661;28;20080;-80
2023/07/23 01:30:20;;;;;;;3.80;1.92;;;;;;;23.75;100.00;100272.53;5006795;28;20152;-80
2023/07/23 01:32:47;;;;;;;2.42;1.65;;;;;;;24.38;100.00;100395.78;5006711;28;20553;-80
2023/07/23 01:35:15;;;;;;;2.90;1.10;;;;;;;24.17;100.00;100370.19;5006906;28;20050;-83
2023/07/23 01:37:47;;;;;;;2.20;0.77;;;;;;;23.56;100.00;100270.00;5006556;28;20050;-80
2023/07/23 01:40:14;;;;;;;2.85;1.55;;;;;;;24.21;100.00;100366.41;4998479;28;20120;-80
2023/07/23 01:42:42;;;;;;;2.63;2.05;;;;;;;23.84;100.00;100301.47;5006705;28;20058;-78
2023/07/23 01:45:08;;;;;;;4.95;1.17;;;;;;;24.29;100.00;100390.94;5006408;28;20025;-79
2023/07/23 01:47:33;;;;;;;3.25;2.17;;;;;;;24.43;100.00;100419.66;4998461;28;20084;-79
2023/07/23 01:49:59;;;;;;;3.17;1.58;;;;;;;24.38;100.00;100429.78;5037987;28;20553;-78
2023/07/23 01:52:24;;;;;;;3.50;1.60;;;;;;;24.01;100.00;100346.94;5001469;28;20050;-78
2023/07/23 01:54:49;;;;;;;2.58;1.00;;;;;;;24.55;100.00;100421.66;5005335;28;20049;-81
2023/07/23 01:57:15;;;;;;;1.98;1.25;;;;;;;23.99;100.00;100334.56;5005773;28;20089;-81
2023/07/23 01:59:40;;;;;;;2.78;1.92;;;;;;;24.37;100.00;100412.84;5007054;28;20030;-81
2023/07/23 02:02:09;;;;;;;3.08;2.05;;;;;;;24.16;100.00;100374.69;5006282;28;20050;-77
2023/07/23 02:04:35;;;;;;;4.57;2.15;;;;;;;24.15;100.00;100426.59;5004410;28;20046;-82
2023/07/23 02:07:01;;;;;;;2.22;1.25;;;;;;;23.64;100.00;100431.16;5037716;28;20113;-79
2023/07/23 02:09:26;;;;;;;3.00;1.33;;;;;;;23.16;100.00;100417.63;5004656;28;20168;-81
2023/07/23 02:11:52;;;;;;;2.63;1.40;;;;;;;23.49;100.00;100502.50;4999869;28;20049;-80
2023/07/23 02:14:17;;;;;;;3.65;2.13;;;;;;;23.39;100.00;100503.94;5005293;28;20037;-80
2023/07/23 02:16:42;;;;;;;2.33;1.40;;;;;;;23.07;100.00;100543.03;5006697;28;20045;-79
2023/07/23 02:19:08;;;;;;;3.42;1.83;;;;;;;23.08;100.00;100590.28;5006324;28;20041;-79
2023/07/23 02:21:33;;;;;;;5.15;2.75;;;;;;;22.84;100.00;100585.13;4998195;28;20125;-80
2023/07/23 02:23:59;;;;;;;4.95;2.90;;;;;;;22.83;100.00;100556.66;5006153;28;20041;-78
2023/07/23 02:26:24;;;;;;;3.28;2.55;;;;;;;22.04;100.00;100567.44;5005624;28;20041;-81
2023/07/23 02:28:50;;;;;;;2.38;1.77;;;;;;;22.40;100.00;100580.09;5001226;28;20049;-81
2023/07/23 02:31:15;;;;;;;7.82;2.25;;;;;;;21.73;100.00;100494.94;5004915;28;20096;-78
2023/07/23 02:33:41;;;;;;;4.53;2.80;;;;;;;21.26;100.00;100405.34;5002666;28;20058;-78
2023/07/23 02:36:06;;;;;;;4.38;2.78;;;;;;;21.71;100.00;100484.34;5004701;28;20492;-78
2023/07/23 02:38:32;;;;;;;5.05;2.33;;;;;;;21.58;100.00;100485.81;5007125;28;20049;-80
2023/07/23 02:40:58;;;;;;;7.35;4.72;;;;;;;21.39;100.00;100459.03;4998893;28;20043;-79
2023/07/23 02:43:24;;;;;;;4.38;2.15;;;;;;;21.28;100.00;100489.75;5004232;28;20069;-82
2023/07/23 02:45:51;;;;;;;6.05;3.40;;;;;;;21.00;100.00;100492.72;5005646;28;20077;-77
2023/07/23 02:48:17;;;;;;;4.53;2.35;;;;;;;21.07;100.00;100438.16;5006001;28;20150;-77
2023/07/23 02:50:42;;;;;;;3.83;2.08;;;;;;;21.36;100.00;100435.16;5001720;28;20544;-78
2023/07/23 02:53:08;;;;;;;5.40;2.75;;;;;;;21.66;100.00;100476.53;5004356;28;20413;-78
2023/07/23 02:55:33;;;;;;;3.97;2.28;;;;;;;21.62;100.00;100476.75;5005716;28;20049;-80
2023/07/23 02:58:00;;;;;;;4.03;1.83;;;;;;;21.49;100.00;100444.38;5003904;28;20069;-77
2023/07/23 03:00:29;;;;;;;5.97;2.90;;;;;;;21.54;100.00;100450.41;5002940;28;20046;-77
2023/07/23 03:02:55;;;;;;;8.55;4.05;;;;;;;21.67;100.00;100475.59;5003969;28;20042;-80
2023/07/23 03:05:20;;;;;;;6.90;3.63;;;;;;;21.31;100.00;100410.47;5003547;28;20061;-78
2023/07/23 03:07:46;;;;;;;4.22;3.08;;;;;;;21.25;100.00;100412.47;5002625;28;20616;-78
2023/07/23 03:10:11;;;;;;;5.97;2.78;;;;;;;21.18;100.00;100423.47;5006538;28;20050;-78
2023/07/23 03:12:37;;;;;;;4.70;2.78;;;;;;;21.63;100.00;100537.22;5008794;28;20057;-78
2023/07/23 03:15:02;;;;;;;9.82;3.15;;;;;;;21.50;100.00;100552.91;5009467;28;20764;-81
2023/07/23 03:17:28;;;;;;;7.22;3.13;;;;;;;21.31;100.00;100530.59;4998488;28;20548;-79
2023/07/23 03:19:53;;;;;;;3.90;3.10;;;;;;;21.59;100.00;100549.00;5007119;28;20425;-79
2023/07/23 03:22:19;;;;;;;4.20;2.20;;;;;;;20.60;100.00;100442.81;5001111;28;20045;-79
2023/07/23 03:24:45;;;;;;;4.18;2.78;;;;;;;20.38;100.00;100441.00;5006765;28;20045;-81
2023/07/23 03:27:11;;;;;;;5.10;3.17;;;;;;;20.71;100.00;100442.38;5006398;28;20057;-80
2023/07/23 03:29:36;;;;;;;4.28;2.88;;;;;;;20.98;100.00;100459.91;5041233;28;20026;-80
2023/07/23 03:32:02;;;;;;;6.60;3.38;;;;;;;21.62;100.00;100556.88;5007775;28;20050;-78
2023/07/23 03:34:28;;;;;;;4.65;3.30;;;;;;;21.60;100.00;100561.41;5005895;28;20046;-81
2023/07/23 03:36:53;;;;;;;6.03;2.90;;;;;;;20.83;100.00;100434.72;5005425;28;20037;-80
2023/07/23 03:39:18;;;;;;;3.05;2.25;;;;;;;19.97;100.00;100349.38;5040250;28;20486;-80
2023/07/23 03:41:45;;;;;;;4.18;2.38;;;;;;;21.18;100.00;100538.22;5009049;28;20485;-81
2023/07/23 03:44:11;;;;;;;4.00;2.83;;;;;;;20.91;100.00;100510.88;5000030;28;20047;-79
2023/07/23 03:46:56;;;;;;;3.38;2.03;;;;;;;20.54;100.00;100475.03;5001653;28;20033;-80
2023/07/23 03:49:22;;;;;;;5.20;2.78;;;;;;;20.64;100.00;100471.97;5017914;28;20185;-79
2023/07/23 03:51:47;;;;;;;5.35;2.90;;;;;;;21.13;100.00;100553.56;5005046;28;20132;-80
2023/07/23 03:54:13;;;;;;;4.88;3.08;;;;;;;20.61;100.00;100466.75;5005115;28;20038;-79
2023/07/23 03:56:38;;;;;;;7.80;3.17;;;;;;;20.58;100.00;100463.34;5009304;28;20078;-79
2023/07/23 03:59:04;;;;;;;3.55;2.72;;;;;;;20.53;100.00;100470.63;5007199;28;20050;-78
2023/07/23 04:01:29;;;;;;;5.72;3.05;;;;;;;21.01;100.00;100546.94;4998043;28;20306;-79
2023/07/23 04:03:54;;;;;;;3.78;2.10;;;;;;;20.53;100.00;100476.81;5006472;28;20057;-80
2023/07/23 04:06:20;;;;;;;4.70;2.80;;;;;;;20.55;100.00;100480.28;5007974;28;20101;-78
2023/07/23 04:08:45;;;;;;;8.65;2.55;;;;;;;20.97;100.00;100543.53;5008609;28;20037;-80
2023/07/23 04:11:11;;;;;;;3.22;2.15;;;;;;;20.94;100.00;100540.13;5030035;28;20421;-79
2023/07/23 04:13:36;;;;;;;5.57;2.45;;;;;;;20.97;100.00;100551.53;5005530;28;20034;-78
2023/07/23 04:16:08;;;;;;;4.60;2.22;;;;;;;20.63;100.00;100456.91;5008153;28;20062;-78
2023/07/23 04:18:45;;;;;;;3.83;1.83;;;;;;;21.41;100.00;100556.84;5004489;28;20107;-79
2023/07/23 04:21:11;;;;;;;5.45;2.78;;;;;;;21.11;100.00;100563.44;5004071;28;20046;-78
2023/07/23 04:23:36;;;;;;;4.28;2.65;;;;;;;21.23;100.00;100555.78;5008768;28;20394;-80
2023/07/23 04:26:02;;;;;;;7.82;3.30;;;;;;;20.61;100.00;100461.44;5006378;28;20430;-79
2023/07/23 04:28:27;;;;;;;4.97;2.58;;;;;;;21.05;100.00;100548.56;4996913;28;20422;-83
2023/07/23 04:30:53;;;;;;;3.92;2.30;;;;;;;20.58;100.00;100461.56;5002189;28;20057;-78
2023/07/23 04:33:18;;;;;;;4.38;2.60;;;;;;;19.99;100.00;100384.81;5007524;28;20061;-78
2023/07/23 04:35:44;;;;;;;5.38;2.70;;;;;;;21.06;100.00;100552.97;5008540;28;20034;-83
2023/07/23 04:38:09;;;;;;;5.25;2.70;;;;;;;20.69;100.00;100470.91;5000337;28;20108;-79
2023/07/23 04:40:35;;;;;;;6.50;2.83;;;;;;;20.85;100.00;100480.00;5007205;28;20704;-81
2023/07/23 04:43:01;;;;;;;3.92;2.45;;;;;;;20.55;100.00;100458.09;5006620;28;20057;-77
2023/07/23 04:45:26;;;;;;;7.80;2.83;;;;;;;20.63;100.00;100512.03;5007607;28;20048;-77
2023/07/23 04:47:51;;;;;;;3.53;2.25;;;;;;;20.54;100.00;100507.03;4998882;28;20509;-77
2023/07/23 04:50:17;;;;;;;4.30;2.40;;;;;;;20.40;100.00;100468.47;5008071;28;20033;-81
2023/07/23 04:52:42;;;;;;;4.93;3.05;;;;;;;20.85;100.00;100552.91;5004238;28;20053;-80
2023/07/23 04:55:08;;;;;;;7.20;3.35;;;;;;;21.08;100.00;100591.97;5007498;28;20413;-82
2023/07/23 04:57:34;;;;;;;4.60;2.33;;;;;;;21.12;100.00;100587.41;5006661;28;20945;-78
2023/07/23 04:59:59;;;;;;;3.97;2.83;;;;;;;21.27;100.00;100570.75;5007177;28;20034;-79
2023/07/23 05:02:25;;;;;;;3.90;2.88;;;;;;;21.19;100.00;100555.97;5007970;28;20069;-79
2023/07/23 05:04:50;;;;;;;4.75;2.45;;;;;;;20.60;100.00;100442.81;4995116;28;20101;-81
2023/07/23 05:07:16;;;;;;;3.90;1.85;;;;;;;21.20;100.00;100537.22;5005898;28;20468;-79
2023/07/23 05:09:42;;;;;;;6.03;4.57;;;;;;;20.77;100.00;100479.47;5007045;28;20061;-78
2023/07/23 05:12:09;;;;;;;6.45;3.63;;;;;;;21.40;100.00;100576.47;5007326;28;20038;-77
2023/07/23 05:14:35;;;;;;;5.03;2.42;;;;;;;21.23;100.00;100534.44;5005949;28;20034;-81
2023/07/23 05:17:01;;;;;;;5.28;3.25;;;;;;;21.06;100.00;100496.91;5006937;28;20528;-78
2023/07/23 05:19:26;;;;;;;6.97;3.25;;;;;;;21.45;100.00;100555.78;5005308;28;20054;-78
2023/07/23 05:21:53;;;;;;;9.10;3.80;;;;;;;21.55;100.00;100540.22;5005061;28;20053;-80
2023/07/23 05:24:18;;;;;;;5.63;2.75;;;;;;;21.86;100.00;100563.78;4994979;28;20046;-81
2023/07/23 05:26:44;;;;;;;4.53;2.10;;;;;;;21.80;100.00;100518.66;5007168;28;20041;-78
2023/07/23 05:29:09;;;;;;;3.00;1.73;;;;;;;21.42;100.00;100440.22;4998819;28;20049;-78
2023/07/23 05:31:35;;;;;;;4.88;2.80;;;;;;;21.89;100.00;100520.91;5003061;28;20046;-78
2023/07/23 05:34:00;;;;;;;3.72;1.80;;;;;;;22.40;100.00;100537.31;5004137;28;20058;-77
2023/07/23 05:36:26;;;;;;;5.25;3.03;;;;;;;22.49;100.00;100487.88;5006617;28;20088;-78
2023/07/23 05:38:51;;;;;;;3.90;1.85;;;;;;;23.05;100.00;100430.69;5000967;28;20034;-81
2023/07/23 05:41:16;;;;;;;5.03;1.77;;;;;;;23.25;100.00;100370.75;5006335;28;20026;-79
2023/07/23 05:43:42;;;;;;;3.72;1.92;;;;;;;24.23;100.00;100474.41;5006659;28;20469;-79
2023/07/23 05:46:08;;;;;;;4.57;1.73;;;;;;;24.39;100.00;100506.59;5006381;28;20037;-80
2023/07/23 05:48:33;;;;;;;4.45;2.72;;;;;;;24.08;100.00;100381.44;5006995;28;20053;-79
2023/07/23 05:50:59;;;;;;;2.50;1.42;;;;;;;25.04;100.00;100402.63;5002007;28;20022;-79
2023/07/23 05:53:24;;;;;;;3.92;2.00;;;;;;;25.71;100.00;100501.59;5001293;28;20030;-78
2023/07/23 05:55:50;;;;;;;7.03;2.55;;;;;;;25.97;100.00;100481.19;5006051;28;20042;-78
2023/07/23 05:58:16;;;;;;;5.78;2.08;;;;;;;26.21;100.00;100442.91;5005442;28;20034;-79
2023/07/23 06:00:41;;;;;;;2.55;1.27;;;;;;;25.74;100.00;100366.16;5003844;28;20783;-79
2023/07/23 06:03:07;;;;;;;3.38;1.83;;;;;;;25.92;100.00;100382.94;5006728;28;20042;-77
2023/07/23 06:05:32;;;;;;;3.25;1.30;;;;;;;25.65;100.00;100459.81;5006407;28;20037;-80
2023/07/23 06:07:58;;;;;;;4.25;2.38;;;;;;;24.25;100.00;100400.09;4991541;28;20066;-79
2023/07/23 06:10:23;;;;;;;3.75;2.35;;;;;;;23.98;100.00;100398.03;5004186;28;20856;-79
2023/07/23 06:12:49;;;;;;;4.47;2.10;;;;;;;25.02;100.00;100490.47;5005314;28;20061;-79
2023/07/23 06:15:15;;;;;;;4.38;2.22;;;;;;;24.31;100.00;100397.09;5005953;28;20417;-81
2023/07/23 06:17:40;;;;;;;2.60;1.45;;;;;;;23.83;100.00;100489.16;5003566;28;20467;-79
2023/07/23 06:20:06;;;;;;;2.40;1.35;;;;;;;24.18;100.00;100503.31;5004516;28;20050;-77
2023/07/23 06:22:32;;;;;;;2.83;1.52;;;;;;;23.48;100.00;100497.22;5005097;28;20112;-79
2023/07/23 06:24:57;;;;;;;2.35;1.85;;;;;;;22.66;100.00;100414.81;5002289;28;20034;-81
2023/07/23 06:27:23;;;;;;;3.45;1.38;;;;;;;23.35;100.00;100432.72;5003462;28;20042;-78
2023/07/23 06:29:48;;;;;;;2.47;1.23;;;;;;;23.11;100.00;100434.88;5006028;28;20064;-80
2023/07/23 06:32:13;;;;;;;2.65;1.80;;;;;;;23.81;100.00;100454.38;5005368;28;20078;-77
2023/07/23 06:34:39;;;;;;;3.45;1.88;;;;;;;23.53;100.00;100450.50;5002006;28;20136;-77
2023/07/23 06:37:05;;;;;;;1.92;1.00;;;;;;;23.82;100.00;100425.78;5006973;28;20116;-82
2023/07/23 06:39:30;;;;;;;7.68;1.48;;;;;;;24.37;100.00;100519.22;5005993;28;20045;-78
2023/07/23 06:41:56;;;;;;;2.03;1.40;;;;;;;24.17;100.00;100485.50;5004866;28;20076;-80
2023/07/23 06:44:21;;;;;;;2.40;1.20;;;;;;;23.76;100.00;100477.88;4999934;28;20565;-79
2023/07/23 06:46:46;;;;;;;1.92;1.60;;;;;;;24.16;100.00;100532.00;5009309;28;20386;-81
2023/07/23 06:49:13;;;;;;;3.35;1.58;;;;;;;23.69;100.00;100541.63;5009631;28;20042;-77
2023/07/23 06:51:39;;;;;;;3.72;2.08;;;;;;;23.51;100.00;100538.09;5008074;28;21390;-78
2023/07/23 06:54:04;;;;;;;4.43;1.80;;;;;;;22.82;100.00;100439.84;5006062;28;20588;-78
2023/07/23 06:56:30;;;;;;;2.83;1.50;;;;;;;23.15;100.00;100461.38;5010313;28;20505;-78
2023/07/23 06:58:55;;;;;;;4.53;1.15;;;;;;;23.43;100.00;100545.66;5009280;28;20048;-79
2023/07/23 07:01:21;;;;;;;3.35;2.28;;;;;;;23.35;100.00;100538.03;5007437;28;20038;-79
2023/07/23 07:03:46;;;;;;;2.30;1.20;;;;;;;23.00;100.00;100478.25;5004909;28;20081;-79
2023/07/23 07:06:12;;;;;;;3.28;1.95;;;;;;;23.52;100.00;100568.44;5001349;28;20045;-81
2023/07/23 07:08:37;;;;;;;2.80;1.25;;;;;;;23.07;100.00;100481.47;5009906;28;20184;-78
2023/07/23 07:11:03;;;;;;;2.33;1.70;;;;;;;23.49;100.00;100563.25;5001407;28;20057;-80
2023/07/23 07:13:30;;;;;;;2.42;1.17;;;;;;;23.79;100.00;100585.78;5007994;28;20054;-78
2023/07/23 07:15:56;;;;;;;2.30;1.48;;;;;;;24.40;100.00;100567.38;5006390;28;20078;-80
2023/07/23 07:18:22;;;;;;;2.33;1.63;;;;;;;24.62;100.00;100550.97;5006201;28;20081;-81
2023/07/23 07:20:58;;;;;;;3.83;2.03;;;;;;;24.66;100.00;100581.19;5005594;28;20492;-80
2023/07/23 07:23:25;;;;;;;4.30;2.17;;;;;;;23.90;100.00;100483.38;5008885;28;20053;-77
2023/07/23 07:25:50;;;;;;;2.60;2.10;;;;;;;24.07;100.00;100562.91;5007159;28;20093;-78
2023/07/23 07:28:16;;;;;;;1.80;0.93;;;;;;;23.69;100.00;100474.63;5037835;28;20112;-78
2023/07/23 07:30:41;;;;;;;2.72;1.23;;;;;;;23.92;100.00;100494.88;5019195;28;20579;-81
2023/07/23 07:33:07;;;;;;;2.70;1.42;;;;;;;23.19;100.00;100411.25;5006692;28;20468;-78
2023/07/23 07:35:32;;;;;;;2.25;1.33;;;;;;;23.89;100.00;100468.25;5007937;28;20478;-79
2023/07/23 07:37:58;;;;;;;2.40;1.30;;;;;;;24.17;100.00;100502.44;5003459;28;20077;-78
2023/07/23 07:40:23;;;;;;;5.07;2.03;;;;;;;25.11;100.00;100572.31;5008475;28;20054;-78
2023/07/23 07:42:49;;;;;;;2.97;0.93;;;;;;;24.87;100.00;100469.06;5009026;28;20077;-79
2023/07/23 07:45:14;;;;;;;5.70;1.92;;;;;;;25.62;100.00;100554.09;5003033;28;20513;-77
2023/07/23 07:47:40;;;;;;;1.50;1.00;;;;;;;24.29;100.00;100502.72;5003845;28;20042;-79
2023/07/23 07:50:07;;;;;;;3.78;1.38;;;;;;;23.85;100.00;100466.66;5008338;28;20054;-80
2023/07/23 07:52:33;;;;;;;2.05;1.38;;;;;;;24.66;100.00;100579.38;5005505;28;20103;-78
2023/07/23 07:54:59;;;;;;;4.80;1.20;;;;;;;24.49;100.00;100583.00;5006885;28;20049;-77
2023/07/23 07:57:29;;;;;;;2.38;1.38;;;;;;;24.08;100.00;100545.84;5007229;28;20383;-80
2023/07/23 07:59:55;;;;;;;2.47;1.17;;;;;;;23.45;100.00;100518.81;5003104;28;20042;-80
2023/07/23 08:02:20;;;;;;;2.55;1.65;;;;;;;23.91;100.00;100596.81;5007943;28;20046;-80
2023/07/23 08:04:46;;;;;;;3.22;1.45;;;;;;;23.55;100.00;100506.66;5003325;28;20062;-78
2023/07/23 08:07:12;;;;;;;2.05;1.42;;;;;;;23.42;100.00;100476.13;5005840;28;20125;-80
2023/07/23 08:09:40;;;;;;;4.00;2.20;;;;;;;24.23;100.00;100608.50;5000111;28;20494;-81
2023/07/23 08:12:07;;;;;;;2.92;1.70;;;;;;;24.25;100.00;100593.19;5007541;28;20061;-78
2023/07/23 08:14:35;;;;;;;2.80;1.90;;;;;;;24.11;100.00;100620.75;4999554;28;20060;-78
2023/07/23 08:17:00;;;;;;;3.45;2.00;;;;;;;24.77;100.00;100619.00;5007758;28;20137;-79
2023/07/23 08:19:26;;;;;;;4.55;1.50;;;;;;;24.40;100.00;100570.06;5008133;28;20129;-79
2023/07/23 08:21:52;;;;;;;4.18;2.33;;;;;;;24.35;100.00;100539.91;5003212;28;20115;-77
2023/07/23 08:24:18;;;;;;;7.10;1.33;;;;;;;24.83;100.00;100535.47;5004497;28;20042;-83
2023/07/23 08:26:47;;;;;;;4.05;1.88;;;;;;;24.56;100.00;100541.44;5008667;28;20160;-81
2023/07/23 08:29:16;;;;;;;3.10;1.55;;;;;;;25.05;100.00;100621.88;5005311;28;20080;-79
2023/07/23 08:31:43;;;;;;;4.22;2.58;;;;;;;23.81;100.00;100583.00;5006307;28;20049;-80
2023/07/23 08:34:09;;;;;;;3.28;1.58;;;;;;;24.71;100.00;100651.56;5007197;28;20514;-76
2023/07/23 08:36:34;;;;;;;5.88;2.15;;;;;;;22.82;100.00;100386.34;4989802;28;20042;-77
2023/07/23 08:39:00;;;;;;;2.35;1.80;;;;;;;24.41;100.00;100641.50;5007262;28;20044;-78
2023/07/23 08:42:03;;;;;;;5.03;1.38;;;;;;;24.46;100.00;100654.69;4998309;28;20092;-76
2023/07/23 08:44:31;;;;;;;4.28;1.58;;;;;;;24.28;100.00;100653.84;5007186;28;20061;-80
2023/07/23 08:47:09;;;;;;;1.88;1.15;;;;;;;24.21;100.00;100656.00;5001796;28;20042;-78
2023/07/23 08:49:34;;;;;;;2.03;1.08;;;;;;;22.82;100.00;100434.50;5006126;28;20060;-77
2023/07/23 08:52:03;;;;;;;1.90;1.25;;;;;;;23.56;100.00;100556.63;5004402;28;20125;-78
2023/07/23 08:54:28;;;;;;;1.95;0.70;;;;;;;24.16;100.00;100639.28;5004965;28;20042;-78
2023/07/23 08:56:54;;;;;;;1.90;1.23;;;;;;;24.11;100.00;100617.19;4994152;28;20088;-78
2023/07/23 08:59:21;;;;;;;3.45;1.83;;;;;;;24.19;100.00;100663.25;5001971;28;20077;-78
2023/07/23 09:01:47;;;;;;;3.45;2.05;;;;;;;23.88;100.00;100637.16;5038451;28;20052;-79
2023/07/23 09:04:13;;;;;;;2.78;1.58;;;;;;;23.80;100.00;100635.75;5001090;28;20481;-80
2023/07/23 09:06:42;;;;;;;2.85;1.30;;;;;;;23.93;100.00;100614.56;5006851;28;20185;-78
2023/07/23 09:09:09;;;;;;;2.30;1.27;;;;;;;23.38;100.00;100604.81;5005173;28;20022;-77
2023/07/23 09:11:35;;;;;;;2.33;1.42;;;;;;;23.43;100.00;100579.63;5007219;28;20041;-80
2023/07/23 09:14:06;;;;;;;2.70;0.93;;;;;;;23.51;100.00;100634.53;4999748;28;20050;-78
2023/07/23 09:16:31;;;;;;;1.98;1.17;;;;;;;23.43;100.00;100654.59;5003809;28;20046;-77
2023/07/23 09:18:57;;;;;;;3.42;1.65;;;;;;;23.86;100.00;100666.75;5006630;28;20108;-78
2023/07/23 09:21:24;;;;;;;1.90;1.17;;;;;;;24.08;100.00;100614.69;5003273;28;20045;-80
2023/07/23 09:23:54;;;;;;;1.67;1.02;;;;;;;24.46;100.00;100561.66;5002676;28;20092;-78
2023/07/23 09:26:22;;;;;;;1.27;0.98;;;;;;;24.19;100.00;100572.94;5030528;28;20788;-77
2023/07/23 09:28:50;;;;;;;2.10;1.15;;;;;;;23.43;100.00;100643.91;5006774;28;20046;-81
2023/07/23 09:31:22;;;;;;;1.30;0.73;;;;;;;23.51;100.00;100672.03;5006329;28;20125;-78
2023/07/23 09:33:48;;;;;;;2.28;1.17;;;;;;;23.59;100.00;100701.13;5006112;28;20049;-81
2023/07/23 09:36:13;;;;;;;1.60;1.00;;;;;;;23.30;100.00;100657.03;5006649;28;20046;-79
2023/07/23 09:38:45;;;;;;;3.53;1.00;;;;;;;22.77;100.00;100619.34;5007208;28;20034;-79
2023/07/23 09:41:11;;;;;;;1.65;1.20;;;;;;;22.85;100.00;100691.25;5006379;28;20044;-77
2023/07/23 09:43:37;;;;;;;2.08;0.98;;;;;;;22.52;100.00;100648.19;5002347;28;20038;-79
2023/07/23 09:46:03;;;;;;;2.00;1.13;;;;;;;22.85;100.00;100715.34;5000459;28;20127;-77
2023/07/23 09:48:28;;;;;;;2.80;1.60;;;;;;;22.43;100.00;100648.59;5006098;28;20128;-78
2023/07/23 09:50:58;;;;;;;3.00;1.50;;;;;;;22.64;100.00;100693.13;5003565;28;20041;-82
2023/07/23 09:53:23;;;;;;;1.90;1.25;;;;;;;22.73;100.00;100739.97;5006828;28;20207;-81
2023/07/23 09:55:50;;;;;;;2.47;1.33;;;;;;;22.91;100.00;100704.31;5006103;28;20604;-81
2023/07/23 09:58:17;;;;;;;2.55;1.08;;;;;;;22.59;100.00;100635.41;4999649;28;20041;-79
2023/07/23 10:00:44;;;;;;;3.88;1.65;;;;;;;23.20;100.00;100741.41;5006445;28;20052;-77
2023/07/23 10:03:14;;;;;;;2.85;1.85;;;;;;;23.11;100.00;100699.91;4999426;28;20549;-79
2023/07/23 10:05:40;;;;;;;1.98;1.38;;;;;;;23.18;100.00;100737.00;5036320;28;20041;-79
2023/07/23 10:08:06;;;;;;;1.67;1.13;;;;;;;23.12;100.00;100670.34;5006299;28;20034;-80
2023/07/23 10:10:32;;;;;;;3.85;1.77;;;;;;;24.03;100.00;100730.22;5005332;28;20038;-79
2023/07/23 10:12:57;;;;;;;1.30;0.75;;;;;;;24.26;100.00;100691.50;5006654;28;20041;-79
2023/07/23 10:15:23;;;;;;;2.50;1.23;;;;;;;24.44;100.00;100658.31;5006167;28;20052;-78
2023/07/23 10:17:54;;;;;;;3.17;1.42;;;;;;;24.02;100.00;100572.97;5007126;28;20033;-78
2023/07/23 10:20:21;;;;;;;4.47;2.13;;;;;;;24.90;100.00;100606.63;5006291;28;20473;-81
2023/07/23 10:22:48;;;;;;;2.40;1.45;;;;;;;24.48;100.00;100591.97;5004959;28;20243;-78
2023/07/23 10:25:25;;;;;;;3.42;1.60;;;;;;;26.61;100.00;100709.50;5005935;28;20405;-79
2023/07/23 10:28:00;;;;;;;5.80;2.50;;;;;;;24.44;100.00;100615.41;5004841;28;20049;-78
2023/07/23 10:30:27;;;;;;;6.88;2.10;;;;;;;25.44;100.00;100644.72;5009405;28;20600;-78
2023/07/23 10:33:11;;;;;;;9.25;2.10;;;;;;;24.83;100.00;100723.34;5005367;28;20034;-77
2023/07/23 10:36:04;;;;;;;1.92;1.10;;;;;;;25.15;100.00;100710.84;5009928;28;20084;-78
2023/07/23 10:38:34;;;;;;;2.40;1.20;;;;;;;23.83;100.00;100612.44;4999936;28;20054;-79
2023/07/23 10:41:01;;;;;;;5.20;0.93;;;;;;;24.91;100.00;100699.66;5008232;28;20409;-79
2023/07/23 10:43:49;;;;;;;2.05;1.05;;;;;;;25.24;100.00;100672.75;5008905;28;20049;-78
2023/07/23 10:46:19;;;;;;;3.25;1.05;;;;;;;25.90;100.00;100679.69;5002999;28;20100;-77
2023/07/23 10:48:55;;;;;;;5.88;1.20;;;;;;;25.53;100.00;100696.22;5009636;28;20034;-83
2023/07/23 10:51:23;;;;;;;1.98;1.23;;;;;;;26.19;100.00;100611.63;5008351;28;20057;-78
2023/07/23 10:54:02;;;;;;;1.52;0.88;;;;;;;25.16;100.00;100621.25;5009844;28;20397;-82
2023/07/23 10:56:40;;;;;;;1.77;1.02;;;;;;;25.86;100.00;100710.38;5005529;28;20173;-79
2023/07/23 10:59:16;;;;;;;2.55;2.35;;;;;;;26.06;100.00;100697.59;5009427;28;20133;-78
2023/07/23 11:01:48;;;;;;;3.78;2.20;;;;;;;26.82;100.00;100665.06;4994725;28;20061;-80
2023/07/23 11:04:24;;;;;;;2.47;1.13;;;;;;;27.89;100.00;100711.13;5022687;28;20045;-78
2023/07/23 11:06:58;;;;;;;1.88;0.88;;;;;;;27.02;100.00;100609.94;5003066;28;20413;-79
2023/07/23 11:09:31;;;;;;;3.75;1.90;;;;;;;27.68;100.00;100717.94;5019503;28;20049;-80
2023/07/23 11:11:59;;;;;;;1.30;0.50;;;;;;;27.94;100.00;100665.81;5029509;28;20490;-78
2023/07/23 11:14:27;;;;;;;2.15;1.50;;;;;;;25.79;100.00;100600.59;5008314;28;20700;-78